Time;durP1;ratioP1;P1;durP2;ratioP2;P2;SDS_P1;SDS_P2;PMS_P1;PMS_P2;Temp;Humidity;BMP_temperature;BMP_pressure;BME280_temperature;BME280_humidity;BME280_pressure;Samples;Min_cycle;Max_cycle;Signal;HPM_P1;HPM_P2
2021/11/11 00:01:17;;;;;;;0.50;0.50;;;;;;;8.50;77.76;102543.50;5060289;28;20099;-72
2021/11/11 00:03:43;;;;;;;0.20;0.20;;;;;;;8.47;77.69;102541.59;5058663;28;20033;-72
2021/11/11 00:06:08;;;;;;;0.43;0.43;;;;;;;8.45;77.59;102535.38;5058496;28;20437;-73
2021/11/11 00:08:34;;;;;;;0.30;0.30;;;;;;;8.47;76.73;102540.72;5058761;28;20143;-72
2021/11/11 00:11:00;;;;;;;0.20;0.20;;;;;;;8.48;76.72;102540.78;5056780;28;20040;-72
2021/11/11 00:13:25;;;;;;;0.40;0.40;;;;;;;8.47;77.40;102541.59;5058721;28;20028;-73
2021/11/11 00:15:51;;;;;;;1.27;0.90;;;;;;;8.48;77.34;102546.00;5059514;28;20035;-73
2021/11/11 00:18:17;;;;;;;0.30;0.30;;;;;;;8.48;77.34;102543.41;5057834;28;20074;-74
2021/11/11 00:20:42;;;;;;;0.30;0.30;;;;;;;8.52;76.73;102540.22;5058016;28;20029;-73
2021/11/11 00:23:08;;;;;;;0.30;0.30;;;;;;;8.52;76.07;102532.41;5056900;28;20647;-72
2021/11/11 00:25:34;;;;;;;0.37;0.37;;;;;;;8.52;76.40;102541.94;5058792;28;20017;-72
2021/11/11 00:28:00;;;;;;;2.33;0.67;;;;;;;8.51;76.80;102535.81;5058205;28;20032;-73
2021/11/11 00:30:29;;;;;;;0.30;0.30;;;;;;;8.50;76.93;102541.81;5057664;28;20041;-73
2021/11/11 00:32:54;;;;;;;0.30;0.30;;;;;;;8.49;76.96;102533.88;5056932;28;20025;-72
2021/11/11 00:35:25;;;;;;;0.30;0.30;;;;;;;8.51;77.32;102542.72;5057931;28;20394;-73
2021/11/11 00:37:52;;;;;;;0.53;0.53;;;;;;;8.50;76.35;102538.28;5057897;28;20445;-73
2021/11/11 00:40:18;;;;;;;0.20;0.20;;;;;;;8.49;76.97;102544.31;5056837;28;20296;-73
2021/11/11 00:42:45;;;;;;;0.40;0.40;;;;;;;8.48;77.76;102543.41;5057202;28;20041;-73
2021/11/11 00:45:11;;;;;;;0.30;0.30;;;;;;;8.47;77.53;102543.31;5057168;28;20322;-72
2021/11/11 00:47:37;;;;;;;0.40;0.40;;;;;;;8.47;76.74;102548.53;5056816;28;20098;-72
2021/11/11 00:50:05;;;;;;;0.30;0.30;;;;;;;8.46;76.85;102547.63;5057362;28;20021;-73
2021/11/11 00:52:31;;;;;;;0.50;0.50;;;;;;;8.47;76.97;102551.16;5042926;28;20108;-73
2021/11/11 00:54:57;;;;;;;0.30;0.30;;;;;;;8.47;76.69;102551.16;5056241;28;20013;-73
2021/11/11 00:57:22;;;;;;;0.30;0.30;;;;;;;8.49;77.74;102554.75;5057370;28;20108;-73
2021/11/11 00:59:48;;;;;;;0.40;0.40;;;;;;;8.48;77.94;102553.84;5057064;28;20020;-72
2021/11/11 01:02:13;;;;;;;0.40;0.40;;;;;;;8.47;78.25;102546.81;5056533;28;20017;-73
2021/11/11 01:04:39;;;;;;;0.40;0.40;;;;;;;8.47;77.72;102557.25;5056782;28;20399;-72
2021/11/11 01:07:06;;;;;;;0.20;0.20;;;;;;;8.47;78.15;102554.66;5056537;28;20119;-72
2021/11/11 01:09:31;;;;;;;0.23;0.23;;;;;;;8.46;77.81;102551.97;5057156;28;20395;-73
2021/11/11 01:11:57;;;;;;;0.60;0.60;;;;;;;8.45;78.71;102553.66;5056394;28;20017;-72
2021/11/11 01:14:23;;;;;;;0.30;0.30;;;;;;;8.45;78.82;102550.13;5057711;28;20021;-73
2021/11/11 01:16:49;;;;;;;0.30;0.30;;;;;;;8.43;79.00;102549.13;5055942;28;20047;-72
2021/11/11 01:19:14;;;;;;;0.40;0.40;;;;;;;8.44;79.40;102544.03;5056739;28;20029;-72
2021/11/11 01:21:39;;;;;;;0.40;0.40;;;;;;;8.43;79.54;102539.59;5057332;28;20025;-72
2021/11/11 01:24:05;;;;;;;0.20;0.20;;;;;;;8.42;79.70;102536.88;5057034;28;20108;-73
2021/11/11 01:26:31;;;;;;;0.40;0.40;;;;;;;8.42;79.24;102536.88;5057495;28;20107;-73
2021/11/11 01:28:56;;;;;;;0.33;0.33;;;;;;;8.41;79.00;102540.31;5056150;28;20031;-72
2021/11/11 01:31:21;;;;;;;0.30;0.30;;;;;;;8.42;79.38;102529.06;5056070;28;20087;-72
2021/11/11 01:33:47;;;;;;;0.30;0.30;;;;;;;8.43;78.99;102529.16;5056247;28;20134;-74
2021/11/11 01:36:12;;;;;;;0.40;0.40;;;;;;;8.43;78.61;102528.25;5057115;28;20420;-73
2021/11/11 01:38:37;;;;;;;0.40;0.40;;;;;;;8.41;78.65;102520.31;5057068;28;20074;-73
2021/11/11 01:41:04;;;;;;;0.30;0.30;;;;;;;8.43;78.16;102516.13;5057004;28;20044;-73
2021/11/11 01:43:30;;;;;;;1.13;0.80;;;;;;;8.44;77.79;102511.78;5057349;28;20025;-73
2021/11/11 01:45:56;;;;;;;0.40;0.40;;;;;;;8.40;78.55;102508.06;5057202;28;20104;-74
2021/11/11 01:48:21;;;;;;;0.10;0.10;;;;;;;8.41;78.31;102508.97;5056451;28;20055;-73
2021/11/11 01:50:48;;;;;;;0.40;0.40;;;;;;;8.43;77.96;102509.97;5057480;28;20383;-73
2021/11/11 01:53:15;;;;;;;0.30;0.30;;;;;;;8.43;78.10;102505.66;5056696;28;20028;-74
2021/11/11 01:55:42;;;;;;;2.20;2.10;;;;;;;8.41;78.82;102498.53;5057119;28;20434;-72
2021/11/11 01:58:08;;;;;;;0.40;0.40;;;;;;;8.41;78.72;102499.44;5056636;28;20021;-72
2021/11/11 02:00:40;;;;;;;0.20;0.20;;;;;;;8.39;78.66;102501.03;5056618;28;20032;-72
2021/11/11 02:03:06;;;;;;;0.30;0.30;;;;;;;8.38;79.15;102502.78;5056350;28;20017;-73
2021/11/11 02:05:33;;;;;;;0.20;0.20;;;;;;;8.40;78.78;102505.47;5057228;28;20079;-72
2021/11/11 02:07:58;;;;;;;0.33;0.33;;;;;;;8.45;78.32;102498.84;5039134;28;20067;-72
2021/11/11 02:10:25;;;;;;;0.23;0.23;;;;;;;8.46;77.96;102492.81;5057261;28;20029;-72
2021/11/11 02:12:51;;;;;;;0.40;0.40;;;;;;;8.44;78.22;102496.13;5056900;28;20079;-72
2021/11/11 02:15:18;;;;;;;0.37;0.37;;;;;;;8.41;78.18;102490.72;5055239;28;20041;-72
2021/11/11 02:17:43;;;;;;;0.50;0.50;;;;;;;8.41;78.34;102495.94;5054827;28;20273;-71
2021/11/11 02:20:10;;;;;;;0.30;0.30;;;;;;;8.44;78.04;102490.91;5056052;28;20024;-72
2021/11/11 02:22:36;;;;;;;0.40;0.40;;;;;;;8.44;78.14;102491.81;5039443;28;20025;-73
2021/11/11 02:25:24;;;;;;;0.30;0.30;;;;;;;8.44;77.66;102497.03;5056359;28;20040;-73
2021/11/11 02:27:52;;;;;;;0.30;0.30;;;;;;;8.45;77.67;102492.69;5038896;28;20036;-73
2021/11/11 02:30:19;;;;;;;0.23;0.23;;;;;;;8.44;78.12;102494.41;5056604;28;20032;-73
2021/11/11 02:32:46;;;;;;;0.30;0.30;;;;;;;8.47;77.79;102496.31;5056230;28;20029;-73
2021/11/11 02:35:12;;;;;;;0.33;0.33;;;;;;;8.44;77.76;102497.03;5058786;28;20339;-73
2021/11/11 02:37:40;;;;;;;0.37;0.37;;;;;;;8.43;78.24;102497.84;5060419;28;20025;-72
2021/11/11 02:40:08;;;;;;;0.30;0.30;;;;;;;8.43;78.20;102494.31;5060016;28;20063;-73
2021/11/11 02:42:35;;;;;;;0.20;0.20;;;;;;;8.45;77.66;102493.63;5059792;28;20033;-72
2021/11/11 02:45:03;;;;;;;0.30;0.30;;;;;;;8.45;77.93;102488.38;5059994;28;20025;-73
2021/11/11 02:47:28;;;;;;;0.20;0.20;;;;;;;8.44;78.29;102486.59;5059778;28;20051;-72
2021/11/11 02:49:55;;;;;;;0.40;0.40;;;;;;;8.44;78.05;102485.66;5060002;28;20391;-73
2021/11/11 02:52:21;;;;;;;0.57;0.57;;;;;;;8.42;78.45;102476.84;5060114;28;20021;-72
2021/11/11 02:54:46;;;;;;;0.30;0.30;;;;;;;8.41;78.29;102482.88;5060076;28;20433;-72
2021/11/11 02:57:26;;;;;;;0.20;0.20;;;;;;;8.39;78.27;102488.91;5059562;28;20072;-72
2021/11/11 02:59:55;;;;;;;0.40;0.40;;;;;;;8.38;78.53;102487.09;5059842;28;20032;-73
2021/11/11 03:02:28;;;;;;;0.40;0.40;;;;;;;8.39;78.31;102494.13;5041741;28;20041;-72
2021/11/11 03:04:54;;;;;;;0.30;0.30;;;;;;;8.41;78.61;102491.59;5059717;28;20021;-72
2021/11/11 03:07:20;;;;;;;0.50;0.50;;;;;;;8.39;78.27;102491.53;5025752;28;20056;-72
2021/11/11 03:09:46;;;;;;;0.40;0.40;;;;;;;8.43;78.85;102492.63;5059905;28;20071;-72
2021/11/11 03:12:13;;;;;;;0.30;0.30;;;;;;;8.41;78.76;102491.59;5059506;28;20056;-72
2021/11/11 03:14:38;;;;;;;0.20;0.20;;;;;;;8.41;79.03;102499.44;5059890;28;20351;-72
2021/11/11 03:17:05;;;;;;;0.40;0.40;;;;;;;8.39;78.58;102493.22;5058749;28;20032;-73
2021/11/11 03:19:34;;;;;;;0.60;0.60;;;;;;;8.38;78.53;102494.03;5041806;28;20033;-72
2021/11/11 03:22:02;;;;;;;0.27;0.27;;;;;;;8.38;78.98;102494.94;5059180;28;20025;-72
2021/11/11 03:24:28;;;;;;;0.30;0.30;;;;;;;8.37;79.36;102494.84;5059650;28;20154;-73
2021/11/11 03:26:53;;;;;;;0.20;0.20;;;;;;;8.36;79.13;102493.91;5042659;28;20437;-72
2021/11/11 03:29:18;;;;;;;0.20;0.20;;;;;;;8.37;79.65;102494.84;5059930;28;20454;-72
2021/11/11 03:31:44;;;;;;;0.27;0.27;;;;;;;8.37;79.39;102495.75;5060218;28;20016;-72
2021/11/11 03:34:10;;;;;;;0.20;0.20;;;;;;;8.36;79.00;102488.69;5058995;28;20025;-72
2021/11/11 03:36:35;;;;;;;0.50;0.50;;;;;;;8.37;79.02;102494.84;5060796;28;20033;-73
2021/11/11 03:39:01;;;;;;;0.40;0.40;;;;;;;8.36;79.01;102493.03;5059957;28;20029;-72
2021/11/11 03:41:26;;;;;;;0.30;0.30;;;;;;;8.38;78.45;102491.41;5059499;28;20025;-73
2021/11/11 03:43:52;;;;;;;0.20;0.20;;;;;;;8.39;78.97;102496.75;5059789;28;20110;-73
2021/11/11 03:46:17;;;;;;;0.27;0.27;;;;;;;8.38;78.98;102499.25;5042368;28;20047;-73
2021/11/11 03:48:43;;;;;;;0.20;0.20;;;;;;;8.39;78.80;102490.59;5059136;28;20044;-72
2021/11/11 03:51:09;;;;;;;0.47;0.47;;;;;;;8.38;78.58;102491.41;5042384;28;20029;-72
2021/11/11 03:53:34;;;;;;;0.40;0.40;;;;;;;8.35;78.75;102494.72;5059676;28;20391;-73
2021/11/11 03:56:00;;;;;;;0.33;0.33;;;;;;;8.36;78.53;102491.31;5059846;28;20352;-72
2021/11/11 03:58:25;;;;;;;0.30;0.30;;;;;;;8.36;79.30;102493.03;5059592;28;20108;-72
2021/11/11 04:00:51;;;;;;;0.20;0.20;;;;;;;8.38;78.76;102497.56;5059272;28;20028;-72
2021/11/11 04:03:17;;;;;;;1.33;0.93;;;;;;;8.37;78.92;102500.06;5041383;28;20029;-71
2021/11/11 04:05:42;;;;;;;0.20;0.20;;;;;;;8.35;79.10;102497.34;5058955;28;20021;-74
2021/11/11 04:08:08;;;;;;;0.20;0.20;;;;;;;8.34;79.02;102505.09;5059177;28;20044;-73
2021/11/11 04:10:33;;;;;;;0.30;0.30;;;;;;;8.34;79.43;102507.69;5042812;28;20111;-72
2021/11/11 04:13:03;;;;;;;0.40;0.40;;;;;;;8.34;78.80;102511.19;5058955;28;20339;-73
2021/11/11 04:15:29;;;;;;;0.20;0.20;;;;;;;8.37;78.99;102507.88;5059705;28;20035;-72
2021/11/11 04:17:55;;;;;;;0.30;0.30;;;;;;;8.35;79.01;102515.59;5058191;28;20318;-73
2021/11/11 04:20:20;;;;;;;0.20;0.20;;;;;;;8.35;79.00;102514.72;5058495;28;20081;-73
2021/11/11 04:22:46;;;;;;;0.30;0.30;;;;;;;8.34;79.16;102516.41;5058390;28;20025;-72
2021/11/11 04:25:16;;;;;;;0.40;0.40;;;;;;;8.35;78.92;102515.59;5057788;28;20052;-72
2021/11/11 04:27:50;;;;;;;0.30;0.30;;;;;;;8.41;78.57;102511.59;5025220;28;20029;-72
2021/11/11 04:33:11;;;;;;;0.33;0.33;;;;;;;8.38;78.28;102512.28;5048711;28;20106;-72
2021/11/11 04:35:38;;;;;;;0.20;0.20;;;;;;;8.37;78.89;102507.88;5058238;28;20111;-72
2021/11/11 04:38:16;;;;;;;0.27;0.27;;;;;;;8.35;78.76;102502.56;5057740;28;20131;-73
2021/11/11 04:46:07;;;;;;;0.87;0.87;;;;;;;8.33;79.48;102495.41;5058250;28;20029;-73
2021/11/11 05:02:11;;;;;;;0.20;0.20;;;;;;;8.32;79.54;102499.75;5058065;28;20063;-72
2021/11/11 05:04:37;;;;;;;0.47;0.47;;;;;;;8.32;79.54;102498.84;5058848;28;20025;-72
2021/11/11 05:07:02;;;;;;;0.30;0.30;;;;;;;8.32;79.98;102504.97;5058171;28;20020;-72
2021/11/11 05:09:28;;;;;;;0.10;0.10;;;;;;;8.31;79.71;102503.19;5041067;28;20358;-71
2021/11/11 05:11:53;;;;;;;0.27;0.27;;;;;;;8.33;79.53;102504.16;5057579;28;20036;-72
2021/11/11 05:14:20;;;;;;;0.30;0.30;;;;;;;8.33;79.56;102505.88;5040827;28;20032;-71
2021/11/11 05:16:46;;;;;;;0.23;0.23;;;;;;;8.34;79.66;102512.91;5057993;28;20040;-72
2021/11/11 05:19:11;;;;;;;0.40;0.40;;;;;;;8.34;79.52;102510.31;5056326;28;20854;-73
2021/11/11 05:21:37;;;;;;;0.10;0.10;;;;;;;8.36;79.19;102509.56;5058041;28;20070;-70
2021/11/11 05:24:04;;;;;;;0.30;0.30;;;;;;;8.40;79.01;102510.69;5057771;28;20114;-72
2021/11/11 05:26:29;;;;;;;0.20;0.20;;;;;;;8.36;79.02;102506.09;5057788;28;20035;-73
2021/11/11 05:28:55;;;;;;;0.20;0.20;;;;;;;8.34;79.38;102510.31;5057210;28;20290;-72
2021/11/11 05:31:20;;;;;;;0.20;0.20;;;;;;;8.33;79.66;102512.00;5057215;28;20035;-72
2021/11/11 05:33:45;;;;;;;0.20;0.20;;;;;;;8.33;79.10;102517.22;5057171;28;20324;-72
2021/11/11 05:36:11;;;;;;;0.20;0.20;;;;;;;8.34;78.99;102512.91;5056992;28;20041;-72
2021/11/11 05:38:36;;;;;;;0.20;0.20;;;;;;;8.38;78.93;102514.91;5040162;28;20031;-72
2021/11/11 05:41:02;;;;;;;0.20;0.20;;;;;;;8.36;79.34;102513.91;5056643;28;20033;-72
2021/11/11 05:43:27;;;;;;;0.20;0.20;;;;;;;8.35;79.68;102512.13;5056980;28;20391;-71
2021/11/11 05:45:53;;;;;;;0.20;0.20;;;;;;;8.34;79.49;102512.91;5039275;28;20028;-73
2021/11/11 05:48:18;;;;;;;0.20;0.20;;;;;;;8.34;79.78;102512.91;5039254;28;20025;-72
2021/11/11 05:50:44;;;;;;;0.20;0.20;;;;;;;8.35;79.88;102517.34;5057646;28;20021;-72
2021/11/11 05:53:09;;;;;;;0.30;0.30;;;;;;;8.34;80.21;102505.97;5056470;28;20456;-71
2021/11/11 05:55:34;;;;;;;0.40;0.40;;;;;;;8.34;80.28;102505.09;5057099;28;20410;-71
2021/11/11 05:58:01;;;;;;;0.30;0.30;;;;;;;8.34;79.99;102505.97;5039053;28;20120;-71
2021/11/11 06:00:27;;;;;;;0.10;0.10;;;;;;;8.38;79.86;102512.28;5057348;28;20025;-71
2021/11/11 06:02:52;;;;;;;0.20;0.20;;;;;;;8.41;79.59;102514.19;5056772;28;20127;-71
2021/11/11 06:05:20;;;;;;;0.30;0.30;;;;;;;8.39;79.61;102516.72;5057744;28;20029;-72
2021/11/11 06:07:45;;;;;;;0.30;0.30;;;;;;;8.38;79.82;102514.91;5057330;28;20059;-72
2021/11/11 06:10:11;;;;;;;0.23;0.23;;;;;;;8.37;80.00;102514.03;5061511;28;20048;-72
2021/11/11 06:12:37;;;;;;;0.27;0.27;;;;;;;8.38;79.68;102514.91;5060731;28;20138;-72
2021/11/11 06:15:03;;;;;;;0.20;0.20;;;;;;;8.36;79.89;102513.91;5061355;28;20029;-72
2021/11/11 06:17:29;;;;;;;0.17;0.17;;;;;;;8.38;79.85;102517.50;5043854;28;20256;-72
2021/11/11 06:19:54;;;;;;;0.40;0.40;;;;;;;8.36;79.51;102524.34;5061339;28;20017;-72
2021/11/11 06:22:20;;;;;;;0.20;0.20;;;;;;;8.37;79.91;102521.84;5061412;28;20029;-71
2021/11/11 06:24:46;;;;;;;0.60;0.60;;;;;;;8.38;80.08;102520.13;5061804;28;20108;-71
2021/11/11 06:27:12;;;;;;;0.20;0.20;;;;;;;8.39;79.90;102522.84;5061269;28;20525;-71
2021/11/11 06:29:37;;;;;;;0.30;0.30;;;;;;;8.39;79.73;102527.16;5061056;28;20024;-71
2021/11/11 06:32:03;;;;;;;0.40;0.40;;;;;;;8.37;80.15;102519.25;5042590;28;20295;-71
2021/11/11 06:34:29;;;;;;;0.30;0.30;;;;;;;8.37;80.33;102534.00;5043174;28;20255;-72
2021/11/11 06:36:54;;;;;;;0.13;0.13;;;;;;;8.38;80.13;102535.78;5059531;28;20600;-72
2021/11/11 06:39:20;;;;;;;0.30;0.30;;;;;;;8.37;79.75;102534.91;5058949;28;20031;-72
2021/11/11 06:41:45;;;;;;;0.47;0.47;;;;;;;8.38;80.24;102541.94;5058682;28;20108;-71
2021/11/11 06:44:14;;;;;;;0.40;0.40;;;;;;;8.40;80.68;102544.63;5041445;28;20017;-72
2021/11/11 06:46:40;;;;;;;0.30;0.30;;;;;;;8.39;80.63;102548.03;5042580;28;20025;-72
2021/11/11 06:49:05;;;;;;;0.30;0.30;;;;;;;8.41;80.45;102548.13;5059299;28;20109;-72
2021/11/11 06:51:31;;;;;;;0.20;0.20;;;;;;;8.42;80.26;102556.09;5060016;28;20049;-72
2021/11/11 06:53:56;;;;;;;0.50;0.50;;;;;;;8.41;80.48;102553.38;5059769;28;20127;-72
2021/11/11 06:56:22;;;;;;;0.93;0.93;;;;;;;8.43;80.24;102559.56;5059958;28;20075;-72
2021/11/11 06:58:48;;;;;;;0.23;0.23;;;;;;;8.42;80.63;102561.31;5059820;28;20039;-72
2021/11/11 07:01:13;;;;;;;0.30;0.30;;;;;;;8.43;80.65;102556.97;5059538;28;20024;-72
2021/11/11 07:03:38;;;;;;;0.30;0.30;;;;;;;8.44;80.96;102564.91;5059167;28;20091;-73
2021/11/11 07:06:05;;;;;;;0.20;0.20;;;;;;;8.45;81.24;102563.19;5042432;28;20391;-72
2021/11/11 07:08:30;;;;;;;0.30;0.30;;;;;;;8.45;81.17;102565.78;5059934;28;20047;-72
2021/11/11 07:10:55;;;;;;;0.30;0.30;;;;;;;8.47;80.92;102567.72;5059342;28;20025;-72
2021/11/11 07:13:22;;;;;;;0.80;0.80;;;;;;;8.46;81.43;102573.75;5042246;28;20136;-72
2021/11/11 07:15:51;;;;;;;0.47;0.47;;;;;;;8.48;81.10;102579.06;5059769;28;20024;-72
2021/11/11 07:18:16;;;;;;;0.20;0.20;;;;;;;8.50;81.17;102577.44;5058920;28;20036;-72
2021/11/11 07:20:49;;;;;;;0.37;0.37;;;;;;;8.54;80.98;102581.19;5058280;28;20044;-71
2021/11/11 07:23:15;;;;;;;0.47;0.47;;;;;;;8.56;81.15;102575.28;5060286;28;20021;-71
2021/11/11 07:25:40;;;;;;;0.10;0.10;;;;;;;8.57;80.61;102582.31;5060640;28;20044;-71
2021/11/11 07:28:06;;;;;;;3.53;0.50;;;;;;;8.60;80.83;102573.75;5042363;28;20115;-71
2021/11/11 07:30:31;;;;;;;0.27;0.27;;;;;;;8.63;81.03;102576.56;5059452;28;20459;-71
2021/11/11 07:32:57;;;;;;;0.20;0.20;;;;;;;8.63;80.81;102577.47;5059410;28;20104;-72
2021/11/11 07:35:24;;;;;;;0.23;0.23;;;;;;;8.64;80.86;102575.75;5060251;28;20033;-71
2021/11/11 07:37:50;;;;;;;0.20;0.20;;;;;;;8.66;80.90;102592.44;5058743;28;20041;-71
2021/11/11 07:40:18;;;;;;;0.10;0.10;;;;;;;8.70;80.89;102580.50;5040636;28;20033;-72
2021/11/11 07:42:44;;;;;;;0.60;0.57;;;;;;;8.69;80.89;102582.19;5058972;28;20051;-72
2021/11/11 07:45:10;;;;;;;0.30;0.30;;;;;;;8.74;80.72;102595.53;5058966;28;20364;-72
2021/11/11 07:47:36;;;;;;;0.30;0.30;;;;;;;8.74;80.55;102591.22;5041501;28;20028;-72
2021/11/11 07:50:05;;;;;;;0.30;0.30;;;;;;;8.76;81.24;102593.91;5024658;28;20040;-71
2021/11/11 07:52:32;;;;;;;0.30;0.30;;;;;;;8.79;80.75;102587.19;5041933;28;20375;-72
2021/11/11 07:54:58;;;;;;;0.13;0.13;;;;;;;8.80;80.87;102591.59;5058135;28;20041;-69
2021/11/11 07:57:29;;;;;;;0.30;0.30;;;;;;;8.82;81.24;102585.59;5058856;28;20029;-69
2021/11/11 07:59:55;;;;;;;0.30;0.30;;;;;;;8.85;81.07;102596.22;5058385;28;20037;-69
2021/11/11 08:02:22;;;;;;;0.83;0.83;;;;;;;8.86;81.18;102590.19;5058532;28;20035;-69
2021/11/11 08:04:47;;;;;;;0.20;0.20;;;;;;;8.86;81.28;102582.34;5059055;28;20052;-70
2021/11/11 08:07:17;;;;;;;0.40;0.40;;;;;;;8.91;81.08;102592.28;5040550;28;20130;-68
2021/11/11 08:09:42;;;;;;;0.30;0.30;;;;;;;8.96;80.98;102584.72;5041636;28;20237;-70
2021/11/11 08:12:08;;;;;;;0.20;0.20;;;;;;;8.98;80.89;102584.84;5058083;28;20112;-71
2021/11/11 08:14:34;;;;;;;0.20;0.20;;;;;;;8.98;80.81;102582.22;5058609;28;20025;-71
2021/11/11 08:16:59;;;;;;;0.20;0.20;;;;;;;9.03;81.09;102575.59;5058176;28;20040;-71
2021/11/11 08:19:25;;;;;;;0.40;0.40;;;;;;;9.05;81.08;102582.69;5055864;28;20025;-71
2021/11/11 08:21:51;;;;;;;0.30;0.30;;;;;;;9.07;81.13;102586.31;5057456;28;20024;-71
2021/11/11 08:24:17;;;;;;;0.20;0.20;;;;;;;9.07;81.18;102583.72;5056837;28;20048;-71
2021/11/11 08:26:42;;;;;;;0.30;0.30;;;;;;;9.07;81.41;102581.09;5039613;28;20304;-70
2021/11/11 08:29:07;;;;;;;0.87;0.87;;;;;;;9.12;81.65;102583.06;5056869;28;20029;-71
2021/11/11 08:31:34;;;;;;;0.30;0.30;;;;;;;9.13;81.88;102572.72;5056280;28;20372;-71
2021/11/11 08:33:59;;;;;;;0.10;0.10;;;;;;;9.23;81.36;102575.91;5057513;28;20024;-72
2021/11/11 08:36:26;;;;;;;0.43;0.43;;;;;;;9.24;81.76;102580.31;5058196;28;20032;-71
2021/11/11 08:38:51;;;;;;;0.27;0.27;;;;;;;9.26;81.94;102584.84;5057515;28;20059;-72
2021/11/11 08:41:17;;;;;;;0.20;0.20;;;;;;;9.27;81.89;102584.03;5058042;28;20384;-72
2021/11/11 08:43:42;;;;;;;0.30;0.30;;;;;;;9.25;82.26;102585.66;5040810;28;20044;-76
2021/11/11 08:46:08;;;;;;;0.30;0.30;;;;;;;9.27;82.14;102584.03;5057386;28;20037;-72
2021/11/11 08:48:33;;;;;;;0.20;0.20;;;;;;;9.27;82.26;102583.16;5057501;28;20033;-72
2021/11/11 08:50:59;;;;;;;2.23;0.60;;;;;;;9.30;82.53;102585.94;5057762;28;20055;-71
2021/11/11 08:53:24;;;;;;;0.20;0.20;;;;;;;9.30;82.23;102586.84;5057895;28;20029;-71
2021/11/11 08:55:50;;;;;;;0.10;0.10;;;;;;;9.33;82.50;102581.81;5057806;28;20029;-71
2021/11/11 08:58:15;;;;;;;0.37;0.37;;;;;;;9.36;82.17;102586.31;5056973;28;20039;-71
2021/11/11 09:00:49;;;;;;;0.20;0.20;;;;;;;9.42;82.13;102591.00;5058087;28;20032;-72
2021/11/11 09:03:15;;;;;;;0.20;0.20;;;;;;;9.42;82.29;102591.94;5039609;28;20041;-72
2021/11/11 09:05:41;;;;;;;0.20;0.20;;;;;;;9.45;82.56;102593.81;5057571;28;20067;-72
2021/11/11 09:08:08;;;;;;;0.40;0.40;;;;;;;9.45;82.18;102589.50;5056941;28;20025;-71
2021/11/11 09:10:35;;;;;;;0.20;0.20;;;;;;;9.45;82.43;102599.94;5057825;28;20032;-74
2021/11/11 09:13:00;;;;;;;0.30;0.30;;;;;;;9.54;81.93;102593.47;5057451;28;20029;-72
2021/11/11 09:15:28;;;;;;;0.40;0.40;;;;;;;9.55;81.46;102590.03;5057574;28;20040;-70
2021/11/11 09:17:55;;;;;;;0.20;0.20;;;;;;;9.51;81.94;102596.81;5039863;28;20032;-71
2021/11/11 09:20:22;;;;;;;0.50;0.50;;;;;;;9.52;82.03;102597.72;5057765;28;20075;-71
2021/11/11 09:22:48;;;;;;;0.53;0.53;;;;;;;9.55;82.06;102597.88;5058365;28;20049;-72
2021/11/11 09:25:14;;;;;;;0.40;0.40;;;;;;;9.60;81.94;102599.09;5058183;28;20029;-71
2021/11/11 09:27:41;;;;;;;0.23;0.23;;;;;;;9.61;81.83;102598.28;5058339;28;20033;-71
2021/11/11 09:30:11;;;;;;;0.40;0.40;;;;;;;9.57;82.00;102602.41;5058173;28;20021;-74
2021/11/11 09:32:36;;;;;;;0.43;0.43;;;;;;;9.57;81.92;102599.78;5057771;28;20013;-71
2021/11/11 09:35:03;;;;;;;0.87;0.60;;;;;;;9.58;82.06;102606.81;5057688;28;20299;-72
2021/11/11 09:37:29;;;;;;;0.40;0.40;;;;;;;9.59;82.01;102606.00;5056789;28;20063;-72
2021/11/11 09:39:55;;;;;;;0.63;0.63;;;;;;;9.58;82.21;102604.22;5056837;28;20460;-72
2021/11/11 09:42:22;;;;;;;0.27;0.27;;;;;;;9.58;82.16;102604.22;5057199;28;20331;-73
2021/11/11 09:44:47;;;;;;;0.30;0.30;;;;;;;9.56;82.84;102599.69;5056963;28;20055;-72
2021/11/11 09:47:13;;;;;;;0.40;0.40;;;;;;;9.57;82.64;102602.41;5056584;28;20376;-71
2021/11/11 09:49:38;;;;;;;0.53;0.53;;;;;;;9.61;82.47;102595.66;5056445;28;20116;-72
2021/11/11 09:52:04;;;;;;;0.27;0.27;;;;;;;9.62;82.45;102606.22;5056972;28;20486;-72
2021/11/11 09:59:41;;;;;;;0.50;0.50;;;;;;;9.74;82.28;102597.28;5057072;28;20036;-71
2021/11/11 10:02:08;;;;;;;0.20;0.20;;;;;;;9.77;82.36;102605.31;5038862;28;20032;-71
2021/11/11 10:04:34;;;;;;;0.33;0.33;;;;;;;9.80;82.10;102610.75;5057106;28;20110;-72
2021/11/11 10:07:00;;;;;;;0.20;0.20;;;;;;;9.80;82.36;102599.38;5038818;28;20032;-71
2021/11/11 10:09:27;;;;;;;0.20;0.20;;;;;;;9.81;82.19;102607.31;5039729;28;20021;-71
2021/11/11 10:12:03;;;;;;;0.60;0.60;;;;;;;9.86;82.11;102605.88;5056764;28;20017;-71
2021/11/11 10:14:36;;;;;;;0.20;0.20;;;;;;;9.86;82.08;102605.88;5056854;28;20040;-70
2021/11/11 10:17:02;;;;;;;0.20;0.20;;;;;;;9.86;82.14;102608.50;5055848;28;20045;-70
2021/11/11 10:19:30;;;;;;;0.73;0.67;;;;;;;9.88;81.95;102613.81;5056745;28;20029;-70
2021/11/11 10:22:03;;;;;;;0.40;0.40;;;;;;;9.91;82.38;102603.53;5056592;28;20021;-71
2021/11/11 10:24:32;;;;;;;0.40;0.40;;;;;;;10.00;82.03;102613.63;5056038;28;20036;-71
2021/11/11 10:27:04;;;;;;;0.50;0.50;;;;;;;10.01;81.95;102618.06;5056401;28;20025;-71
2021/11/11 10:29:36;;;;;;;0.40;0.40;;;;;;;9.99;81.98;102619.69;5056247;28;20082;-72
2021/11/11 10:32:07;;;;;;;0.20;0.20;;;;;;;10.00;81.87;102611.94;5038823;28;20033;-71
2021/11/11 10:34:53;;;;;;;0.50;0.50;;;;;;;10.02;81.82;102617.22;5056607;28;20044;-71
2021/11/11 10:37:20;;;;;;;0.50;0.50;;;;;;;10.01;81.74;102621.59;5056598;28;20032;-72
2021/11/11 10:39:52;;;;;;;0.50;0.50;;;;;;;10.01;81.69;102618.06;5055993;28;20103;-70
2021/11/11 10:42:20;;;;;;;0.40;0.40;;;;;;;9.98;81.67;102610.94;5056439;28;20024;-70
2021/11/11 10:44:50;;;;;;;1.03;0.97;;;;;;;9.97;81.79;102601.25;5039358;28;20340;-72
2021/11/11 10:47:25;;;;;;;0.30;0.30;;;;;;;9.99;81.91;102609.22;5055110;28;20134;-71
2021/11/11 10:49:51;;;;;;;0.20;0.20;;;;;;;9.98;81.54;102607.41;5056918;28;20044;-70
2021/11/11 10:52:35;;;;;;;0.10;0.10;;;;;;;9.97;81.64;102610.84;5055886;28;20754;-71
2021/11/11 10:55:17;;;;;;;0.30;0.30;;;;;;;9.96;81.75;102611.66;5055945;28;20115;-72
2021/11/11 10:57:50;;;;;;;0.27;0.27;;;;;;;9.98;81.46;102603.09;5060211;28;20370;-72
2021/11/11 11:00:18;;;;;;;0.30;0.30;;;;;;;9.96;81.36;102601.19;5042075;28;20033;-71
2021/11/11 11:03:06;;;;;;;0.30;0.30;;;;;;;9.98;81.11;102602.19;5059463;28;20108;-71
2021/11/11 11:05:36;;;;;;;0.23;0.23;;;;;;;9.97;81.53;102603.00;5060250;28;20016;-72
2021/11/11 11:08:09;;;;;;;0.50;0.50;;;;;;;9.98;81.15;102597.84;5059564;28;20409;-72
2021/11/11 11:10:36;;;;;;;0.80;0.80;;;;;;;9.97;81.13;102601.25;5042480;28;20070;-71
2021/11/11 11:13:20;;;;;;;0.80;0.80;;;;;;;9.98;81.18;102610.03;5059452;28;20024;-71
2021/11/11 11:15:56;;;;;;;0.33;0.33;;;;;;;9.96;81.40;102606.44;5059904;28;20029;-71
2021/11/11 11:18:34;;;;;;;0.40;0.40;;;;;;;9.97;81.39;102609.13;5059285;28;20035;-71
2021/11/11 11:21:11;;;;;;;0.40;0.40;;;;;;;10.03;81.15;102605.97;5058082;28;20103;-73
2021/11/11 11:23:44;;;;;;;1.53;0.47;;;;;;;10.06;80.95;102605.22;5059575;28;20040;-71
2021/11/11 11:26:14;;;;;;;0.77;0.77;;;;;;;10.02;81.27;102597.22;5059400;28;20013;-73
2021/11/11 11:29:01;;;;;;;0.20;0.20;;;;;;;10.07;81.25;102597.47;5059394;28;20095;-72
2021/11/11 11:31:46;;;;;;;0.20;0.20;;;;;;;10.10;80.90;102602.00;5059546;28;20048;-71
2021/11/11 11:34:18;;;;;;;0.30;0.30;;;;;;;10.13;81.21;102597.84;5025992;28;20338;-71
2021/11/11 11:36:50;;;;;;;0.30;0.30;;;;;;;10.15;81.15;102588.34;5059611;28;20109;-72
2021/11/11 11:39:25;;;;;;;0.30;0.30;;;;;;;10.16;81.24;102591.88;5058623;28;20072;-72
2021/11/11 11:41:51;;;;;;;0.40;0.40;;;;;;;10.19;81.03;102591.16;5059661;28;20403;-72
2021/11/11 11:44:34;;;;;;;0.50;0.50;;;;;;;10.21;81.00;102585.19;5059104;28;20032;-73
2021/11/11 11:47:11;;;;;;;0.10;0.10;;;;;;;10.28;80.57;102595.19;5058935;28;20028;-72
2021/11/11 11:49:38;;;;;;;0.60;0.60;;;;;;;10.33;80.03;102594.56;5042261;28;20025;-73
2021/11/11 11:52:05;;;;;;;0.27;0.27;;;;;;;10.31;79.95;102584.94;5058343;28;20028;-72
2021/11/11 11:57:09;;;;;;;0.20;0.20;;;;;;;10.24;80.66;102580.16;5058652;28;20104;-72
2021/11/11 11:59:39;;;;;;;0.40;0.40;;;;;;;10.27;80.39;102584.66;5059085;28;20021;-71
2021/11/11 12:02:17;;;;;;;0.50;0.50;;;;;;;10.27;80.40;102582.94;5041030;28;20032;-72